createdAt,value
2023-01-11T02:28:29.651Z,10.98
2023-01-11T02:31:36.408Z,11.73
2023-01-11T02:34:21.751Z,15.55
2023-01-11T02:36:58.135Z,13.80
2023-01-11T02:39:56.734Z,11.65
2023-01-11T02:42:45.896Z,14.40
2023-01-11T02:45:52.498Z,7.97
2023-01-11T02:48:24.712Z,13.70
2023-01-11T02:51:29.301Z,13.38
2023-01-11T02:54:04.907Z,14.32
2023-01-11T02:56:37.146Z,12.93
2023-01-11T02:59:05.655Z,12.70
2023-01-11T03:01:32.983Z,12.02
2023-01-11T03:04:00.713Z,20.00
2023-01-11T03:06:34.198Z,13.20
2023-01-11T03:09:26.897Z,13.07
2023-01-11T03:12:28.865Z,18.45
2023-01-11T03:15:17.130Z,14.25
2023-01-11T03:17:58.566Z,12.75
2023-01-11T03:20:31.324Z,14.80
2023-01-11T03:23:19.028Z,15.27
2023-01-11T03:25:53.229Z,9.25
2023-01-11T03:28:29.666Z,14.15
2023-01-11T03:31:06.827Z,12.13
2023-01-11T03:33:59.971Z,10.93
2023-01-11T03:36:31.825Z,12.80
2023-01-11T03:39:24.984Z,14.05
2023-01-11T03:41:57.289Z,11.18
2023-01-11T03:44:28.275Z,9.52
2023-01-11T03:47:02.790Z,13.30
2023-01-11T03:49:36.278Z,11.52
2023-01-11T03:52:08.754Z,11.25
2023-01-11T03:54:37.064Z,11.65
2023-01-11T03:57:16.443Z,12.85
2023-01-11T03:59:44.410Z,11.27
2023-01-11T04:02:36.137Z,10.23
2023-01-11T04:05:03.961Z,10.15
2023-01-11T04:07:31.518Z,10.40
2023-01-11T04:09:59.198Z,10.07
2023-01-11T04:12:26.861Z,10.50
2023-01-11T04:14:54.120Z,11.68
2023-01-11T04:17:21.489Z,9.52
2023-01-11T04:19:48.743Z,12.52
2023-01-11T04:22:16.198Z,12.00
2023-01-11T04:24:43.564Z,10.82
2023-01-11T04:27:10.818Z,10.35
2023-01-11T04:29:38.216Z,11.90
2023-01-11T04:32:05.630Z,11.32
2023-01-11T04:34:32.904Z,8.25
2023-01-11T04:37:00.190Z,11.52
2023-01-11T04:39:27.454Z,9.32
2023-01-11T04:42:21.425Z,11.50
2023-01-11T04:44:50.335Z,12.18
2023-01-11T04:47:19.987Z,11.30
2023-01-11T04:49:47.597Z,8.50
2023-01-11T04:52:16.600Z,18.70
2023-01-11T04:54:44.265Z,10.60
2023-01-11T04:57:14.183Z,11.77
2023-01-11T04:59:42.026Z,11.02
2023-01-11T05:02:09.424Z,13.00
2023-01-11T05:04:36.789Z,11.38
2023-01-11T05:07:04.135Z,11.60
2023-01-11T05:09:31.538Z,11.40
2023-01-11T05:11:58.868Z,11.85
2023-01-11T05:14:28.175Z,9.93
2023-01-11T05:16:55.433Z,16.55
2023-01-11T05:19:23.293Z,21.73
2023-01-11T05:21:50.662Z,16.85
2023-01-11T05:24:18.021Z,16.70
2023-01-11T05:26:46.327Z,9.55
2023-01-11T05:29:16.345Z,15.07
2023-01-11T05:31:43.873Z,11.77
2023-01-11T05:34:13.835Z,15.35
2023-01-11T05:36:41.546Z,13.52
2023-01-11T05:39:12.252Z,11.27
2023-01-11T05:41:39.905Z,12.45
2023-01-11T05:44:30.910Z,8.60
2023-01-11T05:46:58.914Z,8.40
2023-01-11T05:49:26.801Z,13.30
2023-01-11T05:51:54.133Z,11.07
2023-01-11T05:54:21.563Z,10.07
2023-01-11T05:56:48.879Z,11.00
2023-01-11T05:59:16.261Z,11.02
2023-01-11T06:01:44.261Z,10.85
2023-01-11T06:04:11.590Z,10.10
2023-01-11T06:06:38.988Z,10.55
2023-01-11T06:09:06.706Z,9.85
2023-01-11T06:11:34.062Z,13.43
2023-01-11T06:14:01.474Z,11.93
2023-01-11T06:16:28.884Z,13.70
2023-01-11T06:18:56.279Z,9.48
2023-01-11T06:21:25.126Z,9.60
2023-01-11T06:23:53.099Z,14.02
2023-01-11T06:26:22.766Z,11.38
2023-01-11T06:28:51.020Z,12.88
2023-01-11T06:31:18.760Z,9.18
2023-01-11T06:33:46.561Z,29.20
2023-01-11T06:36:14.610Z,15.85
2023-01-11T06:38:43.105Z,11.73
2023-01-11T06:41:11.871Z,13.35
2023-01-11T06:43:41.731Z,13.80
2023-01-11T06:46:14.419Z,14.15
2023-01-11T06:48:43.970Z,10.18
2023-01-11T06:51:12.782Z,16.42
2023-01-11T06:53:41.415Z,15.73
2023-01-11T06:56:13.724Z,14.13
2023-01-11T06:58:41.253Z,11.82
2023-01-11T07:01:08.784Z,17.38
2023-01-11T07:03:39.100Z,20.73
2023-01-11T07:06:06.941Z,28.13
2023-01-11T07:08:34.701Z,22.40
2023-01-11T07:11:02.020Z,17.67
2023-01-11T07:13:29.489Z,11.85
2023-01-11T07:15:57.957Z,12.57
2023-01-11T07:18:25.471Z,17.88
2023-01-11T07:20:53.386Z,17.98
2023-01-11T07:23:20.894Z,19.98
2023-01-11T07:25:49.994Z,17.27
2023-01-11T07:28:17.788Z,13.95
2023-01-11T07:30:57.649Z,11.73
2023-01-11T07:33:27.301Z,20.02
2023-01-11T07:35:54.902Z,14.30
2023-01-11T07:38:23.054Z,22.42
2023-01-11T07:40:50.349Z,13.85
2023-01-11T07:43:23.023Z,16.27
2023-01-11T07:45:53.399Z,16.13
2023-01-11T07:48:27.761Z,12.45
2023-01-11T07:50:55.773Z,13.63
2023-01-11T07:53:26.029Z,14.45
2023-01-11T07:55:55.738Z,12.77
2023-01-11T07:58:23.474Z,22.45
2023-01-11T08:00:50.847Z,17.48
2023-01-11T08:03:18.212Z,33.63
2023-01-11T08:05:50.718Z,30.55
2023-01-11T08:08:18.569Z,37.58
2023-01-11T08:10:45.981Z,29.80
2023-01-11T08:13:33.303Z,14.52
2023-01-11T08:16:00.701Z,22.70
2023-01-11T08:18:28.031Z,17.15
2023-01-11T08:20:55.796Z,19.88
2023-01-11T08:23:23.129Z,13.15
2023-01-11T08:25:50.572Z,15.63
2023-01-11T08:28:17.834Z,15.77
2023-01-11T08:30:45.492Z,13.48
2023-01-11T08:33:12.835Z,16.23
2023-01-11T08:35:40.861Z,15.75
2023-01-11T08:38:08.316Z,13.52
2023-01-11T08:40:36.220Z,13.07
2023-01-11T08:43:03.698Z,17.90
2023-01-11T08:45:30.938Z,15.10
2023-01-11T08:48:00.282Z,13.00
2023-01-11T08:50:27.808Z,12.27
2023-01-11T08:52:55.419Z,11.07
2023-01-11T08:55:22.735Z,28.17
2023-01-11T08:57:50.390Z,15.75
2023-01-11T09:00:18.437Z,18.13
2023-01-11T09:02:46.237Z,14.10
2023-01-11T09:05:13.834Z,11.90
2023-01-11T09:07:41.109Z,17.90
2023-01-11T09:10:09.025Z,11.77
2023-01-11T09:12:36.401Z,11.40
2023-01-11T09:15:05.849Z,12.32
2023-01-11T09:17:34.166Z,11.77
2023-01-11T09:20:01.888Z,15.27
2023-01-11T09:22:29.666Z,12.15
2023-01-11T09:24:59.033Z,18.05
2023-01-11T09:27:26.625Z,21.85
2023-01-11T09:29:53.935Z,21.20
2023-01-11T09:32:21.679Z,16.55
2023-01-11T09:34:49.797Z,19.10
2023-01-11T09:37:17.540Z,17.45
2023-01-11T09:39:46.626Z,18.38
2023-01-11T09:42:31.627Z,22.92
2023-01-11T09:45:12.936Z,18.73
2023-01-11T09:48:03.505Z,25.75
2023-01-11T09:50:40.093Z,17.13
2023-01-11T09:53:19.605Z,18.70
2023-01-11T09:55:52.083Z,21.20
2023-01-11T09:58:34.765Z,22.33
2023-01-11T10:01:10.821Z,13.90
2023-01-11T10:04:21.790Z,17.50
2023-01-11T10:07:23.091Z,18.77
2023-01-11T10:18:34.252Z,16.45
2023-01-11T10:19:38.755Z,16.60
2023-01-11T10:22:18.071Z,17.27
2023-01-11T10:25:03.366Z,15.70
2023-01-11T10:27:39.057Z,12.95
2023-01-11T10:30:35.474Z,15.90
2023-01-11T10:33:50.457Z,14.18
2023-01-11T10:36:55.631Z,13.77
2023-01-11T10:40:06.291Z,19.35
2023-01-11T10:43:03.383Z,15.75
2023-01-11T10:45:37.429Z,21.17
2023-01-11T10:48:26.689Z,16.75
2023-01-11T10:51:03.444Z,16.13
2023-01-11T10:54:09.671Z,15.73
2023-01-11T10:57:05.193Z,14.75
2023-01-11T10:59:56.237Z,16.30
2023-01-11T11:02:40.239Z,21.52
2023-01-11T11:05:43.443Z,18.02
2023-01-11T11:08:24.670Z,13.90
2023-01-11T11:11:03.131Z,20.10
2023-01-11T11:13:46.181Z,17.40
2023-01-11T11:16:23.114Z,21.75
2023-01-11T11:18:52.269Z,16.27
2023-01-11T11:21:23.952Z,24.55
2023-01-11T11:24:27.913Z,14.82
2023-01-11T11:27:07.386Z,19.30
2023-01-11T11:29:43.121Z,23.33
2023-01-11T11:32:38.237Z,17.23
2023-01-11T11:35:09.373Z,17.80
2023-01-11T11:37:45.096Z,23.70
2023-01-11T11:40:56.414Z,15.57
2023-01-11T11:43:25.019Z,13.60
2023-01-11T11:45:59.920Z,18.17
2023-01-11T11:48:33.368Z,15.98
2023-01-11T11:51:05.052Z,18.92
2023-01-11T11:53:55.784Z,19.67
2023-01-11T11:56:33.141Z,17.95
2023-01-11T11:59:09.169Z,20.35
2023-01-11T12:01:40.119Z,23.55
2023-01-11T12:04:17.991Z,20.15
2023-01-11T12:07:05.960Z,18.58
2023-01-11T12:09:36.395Z,19.98
2023-01-11T12:12:04.416Z,19.90
2023-01-11T12:14:35.078Z,16.35
2023-01-11T12:17:23.927Z,21.83
2023-01-11T12:19:51.948Z,19.52
2023-01-11T12:22:22.504Z,17.98
2023-01-11T12:25:26.967Z,17.75
2023-01-11T12:28:08.051Z,19.35
2023-01-11T12:31:00.164Z,18.50
2023-01-11T12:36:29.528Z,25.48
2023-01-11T12:39:24.868Z,15.70
2023-01-11T12:41:57.514Z,17.92
2023-01-11T12:44:57.933Z,23.60
2023-01-11T12:48:10.399Z,19.38
2023-01-11T12:50:47.072Z,14.55
2023-01-11T12:53:28.636Z,15.07
2023-01-11T12:56:17.945Z,21.75
2023-01-11T12:58:56.181Z,20.63
2023-01-11T13:01:39.569Z,18.05
2023-01-11T13:04:21.631Z,21.95
2023-01-11T13:07:12.976Z,17.98
2023-01-11T13:10:04.259Z,19.63
2023-01-11T13:12:48.436Z,18.23
2023-01-11T13:15:21.928Z,21.75
2023-01-11T13:18:02.946Z,16.50
2023-01-11T13:21:04.013Z,16.00
2023-01-11T13:23:48.367Z,21.10
2023-01-11T13:26:24.711Z,19.40
2023-01-11T13:29:20.839Z,17.50
2023-01-11T13:31:50.176Z,18.25
2023-01-11T13:34:25.105Z,21.05
2023-01-11T13:36:59.876Z,16.73
2023-01-11T13:39:46.648Z,20.17
2023-01-11T13:42:20.438Z,15.32
2023-01-11T13:44:58.404Z,15.23
2023-01-11T13:47:38.546Z,16.90
2023-01-11T13:50:22.662Z,17.77
2023-01-11T13:53:03.310Z,12.43
2023-01-11T13:56:03.199Z,13.70
2023-01-11T13:58:49.502Z,17.52
2023-01-11T14:01:32.357Z,20.30
2023-01-11T14:04:15.843Z,14.77
2023-01-11T14:07:06.325Z,18.20
2023-01-11T14:09:50.219Z,14.95
2023-01-11T14:12:30.538Z,14.63
2023-01-11T14:15:16.119Z,13.63
2023-01-11T14:18:11.172Z,21.25
2023-01-11T14:20:46.071Z,14.85
2023-01-11T14:23:32.600Z,15.35
2023-01-11T14:26:18.546Z,20.77
2023-01-11T14:29:06.896Z,17.83
2023-01-11T14:32:10.085Z,15.90
2023-01-11T14:34:56.115Z,19.52
2023-01-11T14:38:00.970Z,24.58
2023-01-11T14:40:34.888Z,26.17
2023-01-11T14:43:36.467Z,26.73
2023-01-11T14:46:13.383Z,27.90
2023-01-11T14:48:59.539Z,21.60
2023-01-11T14:51:41.944Z,21.17
2023-01-11T14:54:31.645Z,17.58
2023-01-11T14:56:59.482Z,21.23
2023-01-11T14:59:37.797Z,24.35
2023-01-11T15:02:05.325Z,23.88
2023-01-11T15:04:59.953Z,20.25
2023-01-11T15:07:30.349Z,27.92
2023-01-11T15:10:00.048Z,23.48
2023-01-11T15:12:40.887Z,25.42
2023-01-11T15:15:19.855Z,21.17
2023-01-11T15:18:14.925Z,22.70
2023-01-11T15:20:53.026Z,23.40
2023-01-11T15:23:21.721Z,20.50
2023-01-11T15:26:00.021Z,15.60
2023-01-11T15:28:50.925Z,18.08
2023-01-11T15:31:34.427Z,19.55
2023-01-11T15:34:22.441Z,18.60
2023-01-11T15:37:06.483Z,26.95
2023-01-11T15:39:44.967Z,19.30
2023-01-11T15:42:15.919Z,22.67
2023-01-11T15:45:09.241Z,24.70
2023-01-11T15:47:49.786Z,19.00
2023-01-11T15:50:19.906Z,26.48
2023-01-11T15:53:12.707Z,24.05
2023-01-11T15:56:17.645Z,25.77
2023-01-11T15:59:03.274Z,30.20
2023-01-11T16:01:35.352Z,29.70
2023-01-11T16:04:24.814Z,41.97
2023-01-11T16:06:57.901Z,48.08
2023-01-11T16:09:42.163Z,45.60
2023-01-11T16:12:21.929Z,39.10
2023-01-11T16:15:08.663Z,36.65
2023-01-11T16:17:40.259Z,41.25
2023-01-11T16:20:19.884Z,39.33
2023-01-11T16:22:56.298Z,48.10
2023-01-11T16:25:30.058Z,37.83
2023-01-11T16:27:59.897Z,44.10
2023-01-11T16:30:29.004Z,42.25
2023-01-11T16:33:27.216Z,40.28
2023-01-11T16:36:12.822Z,43.85
2023-01-11T16:39:12.778Z,42.10
2023-01-11T16:41:55.181Z,60.70
2023-01-11T16:44:33.464Z,61.80
2023-01-11T16:47:04.722Z,45.30
2023-01-11T16:49:32.791Z,44.42
2023-01-11T16:52:00.665Z,36.65
2023-01-11T16:54:32.405Z,32.15
2023-01-11T16:57:01.473Z,38.63
2023-01-11T16:59:34.968Z,28.65
2023-01-11T17:02:04.039Z,30.98
2023-01-11T17:04:37.428Z,41.40
2023-01-11T17:07:23.551Z,40.22
2023-01-11T17:09:51.096Z,32.78
2023-01-11T17:12:26.725Z,51.30
2023-01-11T17:15:17.919Z,55.78
2023-01-11T17:17:45.598Z,38.10
2023-01-11T17:20:23.202Z,39.40
2023-01-11T17:22:53.791Z,44.10
2023-01-11T17:25:37.351Z,64.55
2023-01-11T17:28:18.216Z,56.00
2023-01-11T17:30:48.386Z,57.40
2023-01-11T17:33:33.760Z,77.75
2023-01-11T17:36:02.894Z,75.45
2023-01-11T17:38:30.837Z,81.63
2023-01-11T17:41:01.197Z,60.20
2023-01-11T17:43:49.185Z,40.60
2023-01-11T17:46:20.990Z,46.33
2023-01-11T17:48:54.831Z,67.57
2023-01-11T17:51:28.334Z,67.60
2023-01-11T17:53:56.371Z,66.78
2023-01-11T17:56:33.466Z,50.58
2023-01-11T17:59:20.744Z,57.50
2023-01-11T18:01:54.948Z,51.45
2023-01-11T18:04:25.078Z,75.28
2023-01-11T18:07:04.535Z,80.03
2023-01-11T18:09:34.677Z,57.60
2023-01-11T18:12:18.278Z,53.75
2023-01-11T18:14:58.544Z,56.22
2023-01-11T18:17:33.211Z,51.00
2023-01-11T18:20:04.498Z,47.97
2023-01-11T18:22:37.386Z,49.45
2023-01-11T18:25:37.585Z,49.80
2023-01-11T18:28:26.863Z,55.90
2023-01-11T18:31:01.646Z,37.65
2023-01-11T18:33:33.042Z,31.15
2023-01-11T18:36:03.262Z,30.70
2023-01-11T18:38:33.903Z,42.55
2023-01-11T18:41:27.675Z,31.90
2023-01-11T18:43:55.725Z,31.15
2023-01-11T18:46:23.340Z,29.17
2023-01-11T18:48:50.850Z,63.83
2023-01-11T18:51:33.756Z,68.25
2023-01-11T18:54:01.630Z,36.97
2023-01-11T18:56:29.661Z,32.05
2023-01-11T18:58:58.099Z,32.60
2023-01-11T19:01:25.664Z,34.55
2023-01-11T19:03:53.625Z,42.38
2023-01-11T19:06:22.675Z,49.58
2023-01-11T19:08:49.928Z,33.08
2023-01-11T19:11:17.459Z,34.38
2023-01-11T19:13:46.815Z,30.60
2023-01-11T19:16:16.614Z,32.63
2023-01-11T19:18:45.830Z,45.15
2023-01-11T19:21:14.628Z,40.00
2023-01-11T19:23:42.290Z,35.38
2023-01-11T19:26:09.656Z,42.95
2023-01-11T19:28:38.250Z,61.72
2023-01-11T19:31:08.769Z,63.30
2023-01-11T19:33:36.964Z,68.22
2023-01-11T19:36:08.389Z,64.55
2023-01-11T19:38:36.885Z,64.53
2023-01-11T19:41:07.116Z,52.83
2023-01-11T19:43:36.023Z,50.88
2023-01-11T19:46:04.079Z,56.97
2023-01-11T19:48:35.308Z,54.65
2023-01-11T19:51:05.456Z,57.80
2023-01-11T19:53:33.160Z,57.17
2023-01-11T19:56:06.011Z,52.90
2023-01-11T19:58:37.728Z,65.30
2023-01-11T20:01:10.994Z,123.07
2023-01-11T20:03:44.396Z,51.65
2023-01-11T20:06:11.792Z,45.05
2023-01-11T20:08:41.191Z,59.05
2023-01-11T20:11:11.463Z,65.82
2023-01-11T20:13:39.534Z,53.25
2023-01-11T20:16:09.489Z,48.17
2023-01-11T20:18:37.699Z,47.90
2023-01-11T20:21:05.456Z,45.47
2023-01-11T20:23:33.528Z,48.40
2023-01-11T20:26:07.442Z,42.15
2023-01-11T20:28:34.825Z,45.00
2023-01-11T20:31:06.572Z,44.15
2023-01-11T20:33:34.350Z,54.17
2023-01-11T20:36:11.117Z,58.72
2023-01-11T20:38:39.816Z,42.78
2023-01-11T20:41:13.005Z,47.83
2023-01-11T20:43:40.552Z,50.50
2023-01-11T20:46:07.987Z,42.38
2023-01-11T20:48:36.881Z,41.67
2023-01-11T20:51:04.573Z,46.05
2023-01-11T20:53:32.281Z,43.35
2023-01-11T20:56:04.858Z,41.95
2023-01-11T20:58:33.713Z,43.05
2023-01-11T21:01:10.704Z,43.55
2023-01-11T21:03:38.789Z,40.70
2023-01-11T21:06:09.483Z,38.38
2023-01-11T21:08:37.629Z,31.92
2023-01-11T21:11:12.024Z,39.90
2023-01-11T21:13:39.907Z,40.35
2023-01-11T21:16:12.032Z,39.63
2023-01-11T21:18:43.494Z,38.47
2023-01-11T21:21:17.127Z,38.88
2023-01-11T21:23:46.829Z,41.13
2023-01-11T21:26:16.478Z,56.85
2023-01-11T21:28:45.002Z,49.00
2023-01-11T21:31:13.306Z,40.55
2023-01-11T21:33:40.961Z,38.83
2023-01-11T21:36:12.001Z,36.72
2023-01-11T21:38:40.386Z,61.55
2023-01-11T21:41:10.635Z,42.53
2023-01-11T21:43:39.793Z,32.08
2023-01-11T21:46:10.035Z,35.72
2023-01-11T21:48:38.873Z,49.20
2023-01-11T21:51:10.930Z,38.50
2023-01-11T21:56:07.865Z,40.03
2023-01-11T21:58:35.604Z,40.97
2023-01-11T22:01:11.585Z,42.88
2023-01-11T22:03:42.243Z,37.15
2023-01-11T22:06:10.353Z,42.30
2023-01-11T22:08:40.561Z,41.28
2023-01-11T22:11:08.747Z,46.20
2023-01-11T22:13:36.442Z,73.25
2023-01-11T22:16:15.385Z,70.95
2023-01-11T22:18:44.556Z,60.90
2023-01-11T22:21:17.888Z,41.15
2023-01-11T22:23:47.505Z,40.90
2023-01-11T22:26:17.760Z,48.25
2023-01-11T22:29:06.837Z,35.83
2023-01-11T22:31:34.738Z,37.50
2023-01-11T22:34:02.506Z,31.33
2023-01-11T22:36:32.288Z,32.08
2023-01-11T22:38:59.900Z,63.53
2023-01-11T22:41:28.243Z,32.75
2023-01-11T22:43:56.270Z,33.30
2023-01-11T22:46:25.845Z,34.30
2023-01-11T22:48:53.483Z,31.48
2023-01-11T22:51:24.044Z,30.40
2023-01-11T22:53:53.805Z,34.17
2023-01-11T22:56:25.456Z,32.72
2023-01-11T22:58:54.059Z,31.27
2023-01-11T23:01:24.010Z,37.72
2023-01-11T23:03:53.693Z,34.90
2023-01-11T23:06:26.465Z,34.63
2023-01-11T23:08:54.845Z,31.33
2023-01-11T23:11:43.124Z,33.97
2023-01-11T23:14:14.682Z,62.42
2023-01-11T23:16:42.582Z,51.95
2023-01-11T23:19:11.746Z,49.58
2023-01-11T23:21:40.940Z,51.30
2023-01-11T23:24:09.609Z,56.45
2023-01-11T23:26:37.534Z,44.15
2023-01-11T23:29:05.796Z,47.42
2023-01-11T23:31:33.369Z,51.28
2023-01-11T23:34:01.890Z,48.13
2023-01-11T23:36:32.679Z,47.10
2023-01-11T23:39:00.197Z,54.63
2023-01-11T23:41:46.565Z,53.65
2023-01-11T23:44:16.793Z,52.72
2023-01-11T23:47:04.907Z,50.88
2023-01-11T23:49:32.788Z,61.80
2023-01-11T23:52:00.461Z,54.30
2023-01-11T23:54:30.609Z,38.38
2023-01-11T23:56:59.490Z,31.33
2023-01-11T23:59:27.710Z,28.55
